createdAt,value
2019-04-26T00:01:12.381Z,11.70
2019-04-26T00:03:43.696Z,11.50
2019-04-26T00:06:15.126Z,11.50
2019-04-26T00:08:46.167Z,11.40
2019-04-26T00:11:19.769Z,11.60
2019-04-26T00:14:07.044Z,11.70
2019-04-26T00:16:40.676Z,11.80
2019-04-26T00:19:11.134Z,11.90
2019-04-26T00:21:41.391Z,12.00
2019-04-26T00:24:11.736Z,12.10
2019-04-26T00:26:41.120Z,12.20
2019-04-26T00:29:11.402Z,12.30
2019-04-26T00:31:40.797Z,12.20
2019-04-26T00:34:11.131Z,12.30
2019-04-26T00:36:41.546Z,12.30
2019-04-26T00:39:11.847Z,12.30
2019-04-26T00:41:42.144Z,12.30
2019-04-26T00:44:12.199Z,12.30
2019-04-26T00:46:45.295Z,12.40
2019-04-26T00:49:15.760Z,12.40
2019-04-26T00:51:45.987Z,12.40
2019-04-26T00:54:15.757Z,12.40
2019-04-26T00:56:45.132Z,12.30
2019-04-26T00:59:16.393Z,12.20
2019-04-26T01:01:47.503Z,12.00
2019-04-26T01:04:17.117Z,12.00
2019-04-26T01:06:48.171Z,11.90
2019-04-26T01:09:18.126Z,12.00
2019-04-26T01:11:47.395Z,12.00
2019-04-26T01:14:17.821Z,12.10
2019-04-26T01:16:47.171Z,12.10
2019-04-26T01:19:18.569Z,12.10
2019-04-26T01:21:53.962Z,12.20
2019-04-26T01:24:25.372Z,12.20
2019-04-26T01:26:57.882Z,12.20
2019-04-26T01:29:28.030Z,12.20
2019-04-26T01:32:09.142Z,12.20
2019-04-26T01:34:40.227Z,12.20
2019-04-26T01:37:10.287Z,12.20
2019-04-26T01:39:43.267Z,12.10
2019-04-26T01:42:14.263Z,12.00
2019-04-26T01:44:53.523Z,12.10
2019-04-26T01:47:24.131Z,12.00
2019-04-26T01:49:53.970Z,11.90
2019-04-26T01:52:24.083Z,11.80
2019-04-26T01:54:53.468Z,11.80
2019-04-26T01:57:25.332Z,11.80
2019-04-26T01:59:58.428Z,11.90
2019-04-26T02:02:29.856Z,12.00
2019-04-26T02:05:00.858Z,12.10
2019-04-26T02:07:40.799Z,12.10
2019-04-26T02:10:18.855Z,12.10
2019-04-26T02:12:50.473Z,12.10
2019-04-26T02:15:23.027Z,12.10
2019-04-26T02:17:55.916Z,12.10
2019-04-26T02:20:52.454Z,12.10
2019-04-26T02:23:23.603Z,12.10
2019-04-26T02:25:54.208Z,12.20
2019-04-26T02:28:23.967Z,12.20
2019-04-26T02:30:54.384Z,12.20
2019-04-26T02:33:25.336Z,12.20
2019-04-26T02:35:54.796Z,12.00
2019-04-26T02:38:25.579Z,11.90
2019-04-26T02:40:55.239Z,11.90
2019-04-26T02:43:28.610Z,11.90
2019-04-26T02:46:02.519Z,11.90
2019-04-26T02:48:39.400Z,11.80
2019-04-26T02:51:17.741Z,11.80
2019-04-26T02:53:56.133Z,11.90
2019-04-26T02:56:40.835Z,12.10
2019-04-26T02:59:13.230Z,12.20
2019-04-26T03:01:42.826Z,12.30
2019-04-26T03:04:12.348Z,12.40
2019-04-26T03:07:01.871Z,12.40
2019-04-26T03:09:16.929Z,12.40
2019-04-26T03:12:06.148Z,12.50
2019-04-26T03:15:12.609Z,12.60
2019-04-26T03:17:48.655Z,12.60
2019-04-26T03:20:22.788Z,12.60
2019-04-26T03:23:04.265Z,12.60
2019-04-26T03:25:37.937Z,12.60
2019-04-26T03:28:22.319Z,12.60
2019-04-26T03:31:06.620Z,12.50
2019-04-26T03:34:02.709Z,12.50
2019-04-26T03:36:45.760Z,12.60
2019-04-26T03:39:28.468Z,12.70
2019-04-26T03:42:19.028Z,12.70
2019-04-26T03:45:10.909Z,12.80
2019-04-26T03:47:46.254Z,12.80
2019-04-26T03:50:24.602Z,12.80
2019-04-26T03:53:10.720Z,12.80
2019-04-26T03:55:45.457Z,12.80
2019-04-26T03:58:31.627Z,12.80
2019-04-26T04:01:05.638Z,12.80
2019-04-26T04:03:55.796Z,12.80
2019-04-26T04:06:29.831Z,12.80
2019-04-26T04:09:07.957Z,12.80
2019-04-26T04:12:09.672Z,12.80
2019-04-26T04:14:37.697Z,12.80
2019-04-26T04:17:17.187Z,12.90
2019-04-26T04:20:19.016Z,12.80
2019-04-26T04:23:00.493Z,12.70
2019-04-26T04:25:39.486Z,12.60
2019-04-26T04:28:31.796Z,12.60
2019-04-26T04:31:07.100Z,12.50
2019-04-26T04:33:43.606Z,12.50
2019-04-26T04:36:16.483Z,12.50
2019-04-26T04:39:12.490Z,12.50
2019-04-26T04:42:00.514Z,12.60
2019-04-26T04:44:49.941Z,12.70
2019-04-26T04:47:30.804Z,12.70
2019-04-26T04:50:17.673Z,12.70
2019-04-26T04:52:55.615Z,12.70
2019-04-26T04:55:56.571Z,12.60
2019-04-26T04:58:37.707Z,12.50
2019-04-26T05:01:23.526Z,12.50
2019-04-26T05:03:55.907Z,12.40
2019-04-26T05:06:51.234Z,12.40
2019-04-26T05:09:28.931Z,12.30
2019-04-26T05:12:10.299Z,12.30
2019-04-26T05:14:52.229Z,12.30
2019-04-26T05:17:49.484Z,12.30
2019-04-26T05:20:31.467Z,12.30
2019-04-26T05:23:29.931Z,12.60
2019-04-26T05:26:32.607Z,12.80
2019-04-26T05:29:32.310Z,12.90
2019-04-26T05:32:39.995Z,13.20
2019-04-26T05:35:25.871Z,13.20
2019-04-26T05:38:18.595Z,13.10
2019-04-26T05:41:19.483Z,12.90
2019-04-26T05:43:59.243Z,12.80
2019-04-26T05:46:39.007Z,12.70
2019-04-26T05:49:37.447Z,12.80
2019-04-26T05:52:44.020Z,12.60
2019-04-26T05:55:56.034Z,12.40
2019-04-26T05:58:48.024Z,12.30
2019-04-26T06:01:30.655Z,12.30
2019-04-26T06:04:57.202Z,12.40
2019-04-26T06:07:54.233Z,12.40
2019-04-26T06:10:40.459Z,12.50
2019-04-26T06:13:23.454Z,12.30
2019-04-26T06:16:16.698Z,12.20
2019-04-26T06:18:59.715Z,12.00
2019-04-26T06:21:38.058Z,11.80
2019-04-26T06:24:34.819Z,11.70
2019-04-26T06:27:20.995Z,11.70
2019-04-26T06:30:05.214Z,11.70
2019-04-26T06:32:40.629Z,11.80
2019-04-26T06:35:22.195Z,11.90
2019-04-26T06:38:21.459Z,11.90
2019-04-26T06:41:02.489Z,12.00
2019-04-26T06:43:42.674Z,11.80
2019-04-26T06:46:36.129Z,11.70
2019-04-26T06:49:16.321Z,11.70
2019-04-26T06:51:48.766Z,11.80
2019-04-26T06:54:56.253Z,11.80
2019-04-26T06:58:01.157Z,11.80
2019-04-26T07:00:59.039Z,11.90
2019-04-26T07:03:31.526Z,11.70
2019-04-26T07:06:04.501Z,11.70
2019-04-26T07:08:57.268Z,11.50
2019-04-26T07:11:48.040Z,11.40
2019-04-26T07:14:38.738Z,11.40
2019-04-26T07:17:13.831Z,11.50
2019-04-26T07:20:04.361Z,11.50
2019-04-26T07:22:50.398Z,11.60
2019-04-26T07:25:53.477Z,11.60
2019-04-26T07:28:47.671Z,11.40
2019-04-26T07:31:38.583Z,11.50
2019-04-26T07:34:21.394Z,11.50
2019-04-26T07:37:11.323Z,11.50
2019-04-26T07:40:12.072Z,11.50
2019-04-26T07:43:06.531Z,11.70
2019-04-26T07:46:01.335Z,11.70
2019-04-26T07:48:58.383Z,11.60
2019-04-26T07:52:02.937Z,11.60
2019-04-26T07:54:44.244Z,11.60
2019-04-26T07:57:21.166Z,11.80
2019-04-26T08:00:02.817Z,11.90
2019-04-26T08:02:55.999Z,12.00
2019-04-26T08:05:53.369Z,11.90
2019-04-26T08:08:26.031Z,12.00
2019-04-26T08:11:14.913Z,11.90
2019-04-26T08:13:52.996Z,11.90
2019-04-26T08:16:33.152Z,11.90
2019-04-26T08:19:08.243Z,12.00
2019-04-26T08:21:47.915Z,12.20
2019-04-26T08:24:19.895Z,12.20
2019-04-26T08:27:13.792Z,12.10
2019-04-26T08:29:38.080Z,12.00
2019-04-26T08:32:11.431Z,12.10
2019-04-26T08:34:43.855Z,12.20
2019-04-26T08:37:20.303Z,12.10
2019-04-26T08:39:52.027Z,12.10
2019-04-26T08:42:25.145Z,11.90
2019-04-26T08:45:04.575Z,11.80
2019-04-26T08:47:36.935Z,11.70
2019-04-26T08:50:16.206Z,11.70
2019-04-26T08:52:48.720Z,11.70
2019-04-26T08:55:20.219Z,11.90
2019-04-26T08:57:52.553Z,11.90
2019-04-26T09:00:24.731Z,11.90
2019-04-26T09:03:11.344Z,12.00
2019-04-26T09:05:45.668Z,12.00
2019-04-26T09:08:16.630Z,12.10
2019-04-26T09:10:48.679Z,12.20
2019-04-26T09:13:21.323Z,12.10
2019-04-26T09:15:59.645Z,12.10
2019-04-26T09:18:29.041Z,12.00
2019-04-26T09:20:58.304Z,12.00
2019-04-26T09:23:50.906Z,11.90
2019-04-26T09:26:30.521Z,11.90
2019-04-26T09:29:17.905Z,11.90
2019-04-26T09:31:55.414Z,12.00
2019-04-26T09:34:26.524Z,12.00
2019-04-26T09:36:55.826Z,12.00
2019-04-26T09:39:25.847Z,11.90
2019-04-26T09:41:56.783Z,12.00
2019-04-26T09:44:27.931Z,12.00
2019-04-26T09:47:14.483Z,12.00
2019-04-26T09:49:51.256Z,12.00
2019-04-26T09:52:22.181Z,12.00
2019-04-26T09:54:51.472Z,12.00
2019-04-26T09:57:20.751Z,12.00
2019-04-26T09:59:50.363Z,12.00
2019-04-26T10:02:19.647Z,12.10
2019-04-26T10:04:48.947Z,12.10
2019-04-26T10:07:18.246Z,12.10
2019-04-26T10:09:47.528Z,12.20
2019-04-26T10:12:18.443Z,12.10
2019-04-26T10:14:55.547Z,12.10
2019-04-26T10:17:26.480Z,12.10
2019-04-26T10:19:56.447Z,12.20
2019-04-26T10:22:27.437Z,12.30
2019-04-26T10:24:56.739Z,12.30
2019-04-26T10:27:26.036Z,12.30
2019-04-26T10:29:55.704Z,12.30
2019-04-26T10:32:27.713Z,12.50
2019-04-26T10:34:57.207Z,12.50
2019-04-26T10:37:38.709Z,12.50
2019-04-26T10:39:57.488Z,12.50
2019-04-26T10:42:26.763Z,12.40
2019-04-26T10:44:56.064Z,12.40
2019-04-26T10:47:25.343Z,12.40
2019-04-26T10:49:58.243Z,12.40
2019-04-26T10:52:27.271Z,12.40
2019-04-26T10:55:07.250Z,12.70
2019-04-26T10:57:41.468Z,12.80
2019-04-26T11:00:14.070Z,12.90
2019-04-26T11:02:43.695Z,13.10
2019-04-26T11:05:18.273Z,13.10
2019-04-26T11:07:43.985Z,13.30
2019-04-26T11:10:13.619Z,13.40
2019-04-26T11:12:44.708Z,13.40
2019-04-26T11:15:15.341Z,13.40
2019-04-26T11:17:46.049Z,13.30
2019-04-26T11:20:15.490Z,13.30
2019-04-26T11:22:44.775Z,13.30
2019-04-26T11:25:14.315Z,13.30
2019-04-26T11:27:44.303Z,13.50
2019-04-26T11:30:20.657Z,13.60
2019-04-26T11:32:46.156Z,13.70
2019-04-26T11:35:15.811Z,13.60
2019-04-26T11:37:46.413Z,13.60
2019-04-26T11:40:16.158Z,13.70
2019-04-26T11:42:45.874Z,13.90
2019-04-26T11:45:16.784Z,14.00
2019-04-26T11:47:55.979Z,14.20
2019-04-26T11:50:17.857Z,14.30
2019-04-26T11:52:47.295Z,14.30
2019-04-26T11:55:16.649Z,14.20
2019-04-26T11:57:47.504Z,14.20
2019-04-26T12:00:27.545Z,14.10
2019-04-26T12:02:56.563Z,14.10
2019-04-26T12:05:30.432Z,13.90
2019-04-26T12:08:01.354Z,13.90
2019-04-26T12:10:30.647Z,13.80
2019-04-26T12:13:05.870Z,13.70
2019-04-26T12:15:31.244Z,13.70
2019-04-26T12:18:00.571Z,13.70
2019-04-26T12:20:29.896Z,13.60
2019-04-26T12:22:59.191Z,13.50
2019-04-26T12:25:30.985Z,13.30
2019-04-26T12:28:01.950Z,13.20
2019-04-26T12:30:30.540Z,13.10
2019-04-26T12:32:59.814Z,13.20
2019-04-26T12:35:30.087Z,13.20
2019-04-26T12:37:59.516Z,13.30
2019-04-26T12:40:28.799Z,13.40
2019-04-26T12:42:58.091Z,13.50
2019-04-26T12:45:38.034Z,13.30
2019-04-26T12:48:15.893Z,13.10
2019-04-26T12:50:46.153Z,13.00
2019-04-26T12:53:17.949Z,12.80
2019-04-26T12:55:49.238Z,12.70
2019-04-26T12:58:17.434Z,12.60
2019-04-26T13:00:53.782Z,12.60
2019-04-26T13:03:20.470Z,12.50
2019-04-26T13:05:49.815Z,12.60
2019-04-26T13:08:19.768Z,12.70
2019-04-26T13:10:53.471Z,12.70
2019-04-26T13:13:24.383Z,12.80
2019-04-26T13:16:11.541Z,12.80
2019-04-26T13:18:41.130Z,12.60
2019-04-26T13:21:11.829Z,12.60
2019-04-26T13:23:41.127Z,12.60
2019-04-26T13:26:10.437Z,12.70
2019-04-26T13:28:39.779Z,12.70
2019-04-26T13:31:09.075Z,12.80
2019-04-26T13:33:38.363Z,12.90
2019-04-26T13:36:07.671Z,13.20
2019-04-26T13:38:39.511Z,13.50
2019-04-26T13:41:08.106Z,14.00
2019-04-26T13:43:37.384Z,14.60
2019-04-26T13:46:08.323Z,15.10
2019-04-26T13:48:43.533Z,15.40
2019-04-26T13:51:14.920Z,15.10
2019-04-26T13:53:44.207Z,15.20
2019-04-26T13:56:13.491Z,15.10
2019-04-26T13:58:42.786Z,15.40
2019-04-26T14:01:14.536Z,15.40
2019-04-26T14:03:43.735Z,15.50
2019-04-26T14:06:13.291Z,15.60
2019-04-26T14:08:42.563Z,15.70
2019-04-26T14:11:11.859Z,15.80
2019-04-26T14:13:41.139Z,15.90
2019-04-26T14:16:10.507Z,15.80
2019-04-26T14:18:40.764Z,15.70
2019-04-26T14:21:10.189Z,15.90
2019-04-26T14:23:49.466Z,16.10
2019-04-26T14:26:29.001Z,16.10
2019-04-26T14:28:59.669Z,16.00
2019-04-26T14:31:29.154Z,15.90
2019-04-26T14:34:01.304Z,15.80
2019-04-26T14:36:29.427Z,15.60
2019-04-26T14:39:05.583Z,15.50
2019-04-26T14:41:30.018Z,15.50
2019-04-26T14:43:59.394Z,15.50
2019-04-26T14:46:28.704Z,15.50
2019-04-26T14:49:02.146Z,15.60
2019-04-26T14:51:29.288Z,15.70
2019-04-26T14:53:58.871Z,15.70
2019-04-26T14:56:29.320Z,15.60
2019-04-26T14:59:01.852Z,15.50
2019-04-26T15:01:35.145Z,15.40
2019-04-26T15:04:23.128Z,15.20
2019-04-26T15:06:58.196Z,15.20
2019-04-26T15:09:32.930Z,15.20
2019-04-26T15:12:00.933Z,15.20
2019-04-26T15:14:27.119Z,15.10
2019-04-26T15:16:56.452Z,15.00
2019-04-26T15:19:25.804Z,14.90
2019-04-26T15:21:55.135Z,14.80
2019-04-26T15:24:25.891Z,14.70
2019-04-26T15:26:58.106Z,14.80
2019-04-26T15:29:28.160Z,14.80
2019-04-26T15:31:58.331Z,14.80
2019-04-26T15:34:27.747Z,14.60
2019-04-26T15:36:57.059Z,14.60
2019-04-26T15:39:39.955Z,14.60
2019-04-26T15:42:13.675Z,14.60
2019-04-26T15:44:57.444Z,14.60
2019-04-26T15:47:29.280Z,14.70
2019-04-26T15:50:05.556Z,14.80
2019-04-26T15:52:34.064Z,14.90
2019-04-26T15:55:05.405Z,14.90
2019-04-26T15:57:34.675Z,14.90
2019-04-26T16:00:07.879Z,14.90
2019-04-26T16:02:37.167Z,14.90
2019-04-26T16:05:07.483Z,14.80
2019-04-26T16:07:36.779Z,15.00
2019-04-26T16:10:07.098Z,14.90
2019-04-26T16:12:38.173Z,15.00
2019-04-26T16:15:11.410Z,15.10
2019-04-26T16:17:40.134Z,15.10
2019-04-26T16:20:10.090Z,15.10
2019-04-26T16:22:39.637Z,15.10
2019-04-26T16:25:09.091Z,15.10
2019-04-26T16:27:38.651Z,15.00
2019-04-26T16:30:28.416Z,15.00
2019-04-26T16:33:03.046Z,14.90
2019-04-26T16:35:32.498Z,14.90
2019-04-26T16:38:06.953Z,15.00
2019-04-26T16:40:34.748Z,14.90
2019-04-26T16:43:04.269Z,14.80
2019-04-26T16:45:37.280Z,14.80
2019-04-26T16:48:04.590Z,14.70
2019-04-26T16:50:38.184Z,14.70
2019-04-26T16:53:04.871Z,14.70
2019-04-26T16:55:37.742Z,14.60
2019-04-26T16:58:05.331Z,14.50
2019-04-26T17:00:50.777Z,14.50
2019-04-26T17:03:07.911Z,14.50
2019-04-26T17:05:47.756Z,14.50
2019-04-26T17:08:10.423Z,14.50
2019-04-26T17:10:38.989Z,14.50
2019-04-26T17:13:08.348Z,14.40
2019-04-26T17:15:37.639Z,14.40
2019-04-26T17:18:06.934Z,14.40
2019-04-26T17:20:36.210Z,14.40
2019-04-26T17:23:13.159Z,14.50
2019-04-26T17:25:47.103Z,14.40
2019-04-26T17:28:18.085Z,14.40
2019-04-26T17:30:47.791Z,14.40
2019-04-26T17:33:17.407Z,14.40
2019-04-26T17:35:46.694Z,14.30
2019-04-26T17:38:15.977Z,14.20
2019-04-26T17:40:46.300Z,14.10
2019-04-26T17:43:15.847Z,14.20
2019-04-26T17:45:45.143Z,14.10
2019-04-26T17:48:14.436Z,14.10
2019-04-26T17:50:43.747Z,14.00
2019-04-26T17:53:25.785Z,13.90
2019-04-26T17:55:45.836Z,13.90
2019-04-26T17:58:17.759Z,13.80
2019-04-26T18:00:46.908Z,13.80
2019-04-26T18:03:16.433Z,13.80
2019-04-26T18:05:56.664Z,13.80
2019-04-26T18:08:33.549Z,13.70
2019-04-26T18:10:48.099Z,13.70
2019-04-26T18:13:17.987Z,13.60
2019-04-26T18:15:48.552Z,13.60
2019-04-26T18:18:23.341Z,13.60
2019-04-26T18:20:54.343Z,13.70
2019-04-26T18:23:24.691Z,13.70
2019-04-26T18:25:53.987Z,13.70
2019-04-26T18:28:23.378Z,13.80
2019-04-26T18:30:53.176Z,13.80
2019-04-26T18:33:25.962Z,13.80
2019-04-26T18:35:57.478Z,13.90
2019-04-26T18:38:24.914Z,13.90
2019-04-26T18:41:00.886Z,13.90
2019-04-26T18:43:28.179Z,13.80
2019-04-26T18:46:03.330Z,13.70
2019-04-26T18:48:40.278Z,13.70
2019-04-26T18:51:07.527Z,13.70
2019-04-26T18:53:41.574Z,13.70
2019-04-26T18:56:17.119Z,13.90
2019-04-26T18:58:51.506Z,13.90
2019-04-26T19:01:20.852Z,14.00
2019-04-26T19:03:50.161Z,14.00
2019-04-26T19:06:29.759Z,13.90
2019-04-26T19:08:53.463Z,13.90
2019-04-26T19:11:28.271Z,13.70
2019-04-26T19:14:06.452Z,13.50
2019-04-26T19:16:37.745Z,13.30
2019-04-26T19:19:08.778Z,13.20
2019-04-26T19:21:50.617Z,13.10
2019-04-26T19:24:21.445Z,12.90
2019-04-26T19:26:51.454Z,13.00
2019-04-26T19:29:32.674Z,13.00
2019-04-26T19:32:01.009Z,13.00
2019-04-26T19:34:31.306Z,13.00
2019-04-26T19:37:03.368Z,13.10
2019-04-26T19:39:35.504Z,13.10
2019-04-26T19:42:06.141Z,13.10
2019-04-26T19:44:35.057Z,13.10
2019-04-26T19:47:19.582Z,13.10
2019-04-26T19:49:57.747Z,13.10
2019-04-26T19:52:42.459Z,13.30
2019-04-26T19:55:23.817Z,13.20
2019-04-26T19:58:09.526Z,13.20
2019-04-26T20:00:42.518Z,13.10
2019-04-26T20:03:13.433Z,13.00
2019-04-26T20:05:44.144Z,13.00
2019-04-26T20:08:13.876Z,13.00
2019-04-26T20:10:45.499Z,13.00
2019-04-26T20:13:16.273Z,12.90
2019-04-26T20:15:45.731Z,13.00
2019-04-26T20:18:17.574Z,13.00
2019-04-26T20:20:52.231Z,13.10
2019-04-26T20:23:23.199Z,13.20
2019-04-26T20:25:52.999Z,13.20
2019-04-26T20:28:24.087Z,13.40
2019-04-26T20:30:57.954Z,13.40
2019-04-26T20:33:31.127Z,13.40
2019-04-26T20:36:01.912Z,13.20
2019-04-26T20:38:42.879Z,12.80
2019-04-26T20:41:07.167Z,12.60
2019-04-26T20:43:46.231Z,12.40
2019-04-26T20:46:16.516Z,12.30
2019-04-26T20:48:47.437Z,12.20
2019-04-26T20:51:18.377Z,12.10
2019-04-26T20:53:57.499Z,12.00
2019-04-26T20:56:28.974Z,11.80
2019-04-26T20:59:01.582Z,11.50
2019-04-26T21:01:36.274Z,11.30
2019-04-26T21:04:05.567Z,11.10
2019-04-26T21:06:36.951Z,10.90
2019-04-26T21:09:08.079Z,10.80
2019-04-26T21:11:38.346Z,10.80
2019-04-26T21:14:08.763Z,10.80
2019-04-26T21:16:38.195Z,10.80
2019-04-26T21:19:07.503Z,10.90
2019-04-26T21:21:36.778Z,11.10
2019-04-26T21:24:06.154Z,11.50
2019-04-26T21:26:46.622Z,11.70
2019-04-26T21:29:20.453Z,12.00
2019-04-26T21:31:51.047Z,12.10
2019-04-26T21:34:21.995Z,12.00
2019-04-26T21:36:53.250Z,11.90
2019-04-26T21:39:24.346Z,11.80
2019-04-26T21:42:01.535Z,11.70
2019-04-26T21:44:30.827Z,11.60
2019-04-26T21:47:00.235Z,11.50
2019-04-26T21:49:29.602Z,11.40
2019-04-26T21:51:58.896Z,11.20
2019-04-26T21:54:28.448Z,11.20
2019-04-26T21:56:57.743Z,11.10
2019-04-26T21:59:27.259Z,11.10
2019-04-26T22:01:59.185Z,11.10
2019-04-26T22:04:28.897Z,11.20
2019-04-26T22:06:59.893Z,11.20
2019-04-26T22:09:36.717Z,11.20
2019-04-26T22:12:07.382Z,11.30
2019-04-26T22:14:38.383Z,11.40
2019-04-26T22:17:13.524Z,11.40
2019-04-26T22:19:44.911Z,11.30
2019-04-26T22:22:23.218Z,11.30
2019-04-26T22:24:55.530Z,11.40
2019-04-26T22:27:25.522Z,11.50
2019-04-26T22:29:55.199Z,11.50
2019-04-26T22:32:24.598Z,11.60
2019-04-26T22:34:54.246Z,11.60
2019-04-26T22:37:30.027Z,11.70
2019-04-26T22:39:54.864Z,11.60
2019-04-26T22:42:24.587Z,11.60
2019-04-26T22:44:55.505Z,11.70
2019-04-26T22:47:26.438Z,11.70
2019-04-26T22:49:55.967Z,11.70
2019-04-26T22:52:25.575Z,11.70
2019-04-26T22:54:54.855Z,11.80
2019-04-26T22:57:24.223Z,11.80
2019-04-26T22:59:53.708Z,11.90
2019-04-26T23:02:27.548Z,11.90
2019-04-26T23:05:00.678Z,11.90
2019-04-26T23:07:27.734Z,11.90
2019-04-26T23:09:57.011Z,11.80
2019-04-26T23:12:33.948Z,11.80
2019-04-26T23:15:11.095Z,11.80
2019-04-26T23:17:58.530Z,11.90
2019-04-26T23:20:37.802Z,11.90
2019-04-26T23:23:08.547Z,11.90
2019-04-26T23:25:37.898Z,12.00
2019-04-26T23:28:07.171Z,12.10
2019-04-26T23:30:36.462Z,12.30
2019-04-26T23:33:05.832Z,12.30
2019-04-26T23:35:37.518Z,12.30
2019-04-26T23:38:06.166Z,12.20
2019-04-26T23:40:35.443Z,12.10
2019-04-26T23:43:04.742Z,12.10
2019-04-26T23:45:34.018Z,12.10
2019-04-26T23:48:03.612Z,12.20
2019-04-26T23:50:34.077Z,12.20
2019-04-26T23:53:03.679Z,12.20
2019-04-26T23:55:33.816Z,12.20
2019-04-26T23:58:06.506Z,12.20
